createdAt,value
2019-05-07T00:01:23.525Z,99.90
2019-05-07T00:03:53.137Z,99.90
2019-05-07T00:06:23.062Z,99.90
2019-05-07T00:08:52.746Z,99.90
2019-05-07T00:11:22.422Z,99.90
2019-05-07T00:13:52.251Z,99.90
2019-05-07T00:16:22.388Z,99.90
2019-05-07T00:18:52.517Z,99.90
2019-05-07T00:21:23.312Z,99.90
2019-05-07T00:23:52.795Z,99.90
2019-05-07T00:26:22.630Z,99.90
2019-05-07T00:28:52.704Z,99.90
2019-05-07T00:31:23.326Z,99.90
2019-05-07T00:33:52.826Z,99.90
2019-05-07T00:36:42.416Z,99.90
2019-05-07T00:39:36.886Z,99.90
2019-05-07T00:42:15.778Z,99.90
2019-05-07T00:45:15.205Z,99.90
2019-05-07T00:47:32.966Z,99.90
2019-05-07T00:50:07.148Z,99.90
2019-05-07T00:52:36.450Z,99.90
2019-05-07T00:55:06.199Z,99.90
2019-05-07T00:57:35.529Z,99.90
2019-05-07T01:00:06.034Z,99.90
2019-05-07T01:02:35.365Z,99.90
2019-05-07T01:05:04.937Z,99.90
2019-05-07T01:07:34.262Z,99.90
2019-05-07T01:10:03.864Z,99.90
2019-05-07T01:12:33.276Z,99.90
2019-05-07T01:15:03.046Z,99.90
2019-05-07T01:17:33.559Z,99.90
2019-05-07T01:20:03.165Z,99.90
2019-05-07T01:22:33.158Z,99.90
2019-05-07T01:25:03.098Z,99.90
2019-05-07T01:27:32.502Z,99.90
2019-05-07T01:30:02.717Z,99.90
2019-05-07T01:32:42.509Z,99.90
2019-05-07T01:35:42.305Z,99.90
2019-05-07T01:38:12.309Z,99.90
2019-05-07T01:40:42.858Z,99.90
2019-05-07T01:43:12.277Z,99.90
2019-05-07T01:45:49.147Z,99.90
2019-05-07T01:48:16.071Z,99.90
2019-05-07T01:50:45.383Z,99.90
2019-05-07T01:53:14.723Z,99.90
2019-05-07T01:55:44.074Z,99.90
2019-05-07T01:58:13.445Z,99.90
2019-05-07T02:00:42.753Z,99.90
2019-05-07T02:03:27.259Z,99.90
2019-05-07T02:06:22.042Z,99.90
2019-05-07T02:09:10.224Z,99.90
2019-05-07T02:11:42.266Z,99.90
2019-05-07T02:14:13.679Z,99.90
2019-05-07T02:16:42.796Z,99.90
2019-05-07T02:19:12.629Z,99.90
2019-05-07T02:21:42.464Z,99.90
2019-05-07T02:24:12.582Z,99.90
2019-05-07T02:26:42.718Z,99.90
2019-05-07T02:29:12.395Z,99.90
2019-05-07T02:31:44.152Z,99.90
2019-05-07T02:34:14.191Z,99.90
2019-05-07T02:36:43.764Z,99.90
2019-05-07T02:39:25.331Z,99.90
2019-05-07T02:41:54.727Z,99.90
2019-05-07T02:44:24.051Z,99.90
2019-05-07T02:47:18.307Z,99.90
2019-05-07T02:49:54.979Z,99.90
2019-05-07T02:52:43.907Z,99.90
2019-05-07T02:55:25.370Z,99.90
2019-05-07T02:57:54.668Z,99.90
2019-05-07T03:00:24.510Z,99.90
2019-05-07T03:02:53.884Z,99.90
2019-05-07T03:05:25.602Z,99.90
2019-05-07T03:07:55.645Z,99.90
2019-05-07T03:10:24.919Z,99.90
2019-05-07T03:12:54.236Z,99.90
2019-05-07T03:15:24.285Z,99.90
2019-05-07T03:17:54.037Z,99.90
2019-05-07T03:20:27.937Z,99.90
2019-05-07T03:22:58.419Z,99.90
2019-05-07T03:25:33.844Z,99.90
2019-05-07T03:28:04.398Z,99.90
2019-05-07T03:30:46.674Z,99.90
2019-05-07T03:33:27.147Z,99.90
2019-05-07T03:35:57.797Z,99.90
2019-05-07T03:38:27.194Z,99.90
2019-05-07T03:40:56.541Z,99.90
2019-05-07T03:43:27.046Z,99.90
2019-05-07T03:46:23.483Z,99.90
2019-05-07T03:48:53.234Z,99.90
2019-05-07T03:51:23.736Z,99.90
2019-05-07T03:53:53.781Z,99.90
2019-05-07T03:56:23.811Z,99.90
2019-05-07T03:58:53.282Z,99.90
2019-05-07T04:01:24.062Z,99.90
2019-05-07T04:03:53.593Z,99.90
2019-05-07T04:06:23.504Z,99.90
2019-05-07T04:08:53.373Z,99.90
2019-05-07T04:11:23.302Z,99.90
2019-05-07T04:13:53.468Z,99.90
2019-05-07T04:16:23.980Z,99.90
2019-05-07T04:18:53.555Z,99.90
2019-05-07T04:21:23.324Z,99.90
2019-05-07T04:24:13.517Z,99.90
2019-05-07T04:26:45.775Z,99.90
2019-05-07T04:29:16.967Z,99.90
2019-05-07T04:31:46.359Z,99.90
2019-05-07T04:34:37.758Z,99.90
2019-05-07T04:37:07.190Z,99.90
2019-05-07T04:39:36.555Z,99.90
2019-05-07T04:42:05.942Z,99.90
2019-05-07T04:44:35.333Z,99.90
2019-05-07T04:47:04.823Z,99.90
2019-05-07T04:49:34.238Z,99.90
2019-05-07T04:52:11.283Z,99.90
2019-05-07T04:54:39.448Z,99.90
2019-05-07T04:57:25.619Z,99.90
2019-05-07T04:59:56.819Z,99.90
2019-05-07T05:02:44.455Z,99.90
2019-05-07T05:05:15.580Z,99.90
2019-05-07T05:07:44.965Z,99.90
2019-05-07T05:10:14.452Z,99.90
2019-05-07T05:12:43.828Z,99.90
2019-05-07T05:15:13.392Z,99.90
2019-05-07T05:17:50.455Z,99.90
2019-05-07T05:20:14.924Z,99.90
2019-05-07T05:23:03.503Z,99.90
2019-05-07T05:25:40.385Z,99.90
2019-05-07T05:28:12.235Z,99.90
2019-05-07T05:30:47.940Z,99.90
2019-05-07T05:33:17.251Z,99.90
2019-05-07T05:35:46.750Z,99.90
2019-05-07T05:38:16.125Z,99.90
2019-05-07T05:40:45.550Z,99.90
2019-05-07T05:43:24.910Z,99.90
2019-05-07T05:45:56.399Z,99.90
2019-05-07T05:48:26.721Z,99.90
2019-05-07T05:51:02.804Z,99.90
2019-05-07T05:53:37.986Z,99.90
2019-05-07T05:56:13.628Z,99.90
2019-05-07T05:58:52.712Z,99.90
2019-05-07T06:01:34.877Z,99.90
2019-05-07T06:04:12.719Z,99.90
2019-05-07T06:07:10.365Z,99.90
2019-05-07T06:09:42.252Z,99.90
2019-05-07T06:12:40.061Z,99.90
2019-05-07T06:15:37.816Z,99.90
2019-05-07T06:18:29.212Z,99.90
2019-05-07T06:21:08.095Z,99.90
2019-05-07T06:23:43.393Z,99.90
2019-05-07T06:26:12.843Z,99.90
2019-05-07T06:28:42.622Z,99.90
2019-05-07T06:31:12.630Z,99.90
2019-05-07T06:33:42.985Z,99.90
2019-05-07T06:36:12.633Z,99.90
2019-05-07T06:38:57.312Z,99.90
2019-05-07T06:41:44.318Z,99.90
2019-05-07T06:44:18.027Z,99.90
2019-05-07T06:46:52.496Z,99.90
2019-05-07T06:49:22.310Z,99.90
2019-05-07T06:51:52.798Z,99.90
2019-05-07T06:54:22.683Z,99.90
2019-05-07T06:56:52.433Z,99.90
2019-05-07T06:59:42.916Z,99.90
2019-05-07T07:02:29.860Z,97.70
2019-05-07T07:05:25.970Z,95.70
2019-05-07T07:08:05.973Z,95.00
2019-05-07T07:10:53.595Z,93.50
2019-05-07T07:13:24.004Z,92.10
2019-05-07T07:15:53.406Z,90.40
2019-05-07T07:18:23.181Z,87.10
2019-05-07T07:20:52.705Z,87.10
2019-05-07T07:23:22.668Z,83.10
2019-05-07T07:25:52.350Z,80.40
2019-05-07T07:28:22.048Z,78.10
2019-05-07T07:31:12.448Z,74.60
2019-05-07T07:33:43.669Z,70.70
2019-05-07T07:36:13.282Z,69.30
2019-05-07T07:38:42.575Z,65.80
2019-05-07T07:41:22.264Z,63.20
2019-05-07T07:43:52.613Z,59.80
2019-05-07T07:46:22.370Z,57.10
2019-05-07T07:49:04.430Z,55.70
2019-05-07T07:51:37.211Z,54.20
2019-05-07T07:53:53.719Z,50.80
2019-05-07T07:56:49.976Z,47.80
2019-05-07T07:59:44.190Z,49.30
2019-05-07T08:02:32.591Z,48.80
2019-05-07T08:05:02.182Z,48.70
2019-05-07T08:07:33.107Z,48.10
2019-05-07T08:10:02.744Z,48.50
2019-05-07T08:12:32.577Z,47.40
2019-05-07T08:15:14.602Z,46.70
2019-05-07T08:17:33.145Z,46.30
2019-05-07T08:20:02.678Z,47.40
2019-05-07T08:22:32.985Z,47.80
2019-05-07T08:25:04.143Z,48.10
2019-05-07T08:27:33.557Z,49.00
2019-05-07T08:30:04.151Z,49.20
2019-05-07T08:32:49.781Z,48.60
2019-05-07T08:35:41.939Z,46.10
2019-05-07T08:38:12.763Z,43.80
2019-05-07T08:40:42.246Z,43.80
2019-05-07T08:43:32.243Z,42.50
2019-05-07T08:46:19.580Z,41.60
2019-05-07T08:48:49.962Z,39.20
2019-05-07T08:51:19.324Z,36.60
2019-05-07T08:54:06.578Z,37.00
2019-05-07T08:56:36.931Z,37.80
2019-05-07T08:59:06.930Z,37.50
2019-05-07T09:01:37.903Z,36.90
2019-05-07T09:04:07.469Z,36.90
2019-05-07T09:06:36.870Z,35.30
2019-05-07T09:09:13.143Z,35.60
2019-05-07T09:11:43.193Z,32.60
2019-05-07T09:14:12.906Z,31.30
2019-05-07T09:16:43.440Z,29.30
2019-05-07T09:19:13.106Z,27.90
2019-05-07T09:21:43.077Z,28.60
2019-05-07T09:24:12.741Z,29.00
2019-05-07T09:26:52.365Z,30.00
2019-05-07T09:29:45.693Z,29.30
2019-05-07T09:32:26.987Z,30.10
2019-05-07T09:34:56.821Z,30.80
2019-05-07T09:37:27.616Z,30.70
2019-05-07T09:39:57.074Z,31.30
2019-05-07T09:42:27.176Z,31.60
2019-05-07T09:44:56.636Z,32.80
2019-05-07T09:47:26.234Z,33.80
2019-05-07T09:50:04.577Z,35.70
2019-05-07T09:52:26.521Z,37.80
2019-05-07T09:54:55.963Z,37.50
2019-05-07T09:57:31.202Z,35.20
2019-05-07T09:59:56.586Z,33.80
2019-05-07T10:02:27.093Z,32.90
2019-05-07T10:04:56.543Z,31.60
2019-05-07T10:07:25.898Z,31.20
2019-05-07T10:09:55.340Z,31.70
2019-05-07T10:12:36.175Z,29.00
2019-05-07T10:15:05.923Z,27.70
2019-05-07T10:17:57.020Z,28.30
2019-05-07T10:20:27.252Z,29.30
2019-05-07T10:22:56.633Z,30.00
2019-05-07T10:25:28.539Z,29.00
2019-05-07T10:27:58.231Z,29.30
2019-05-07T10:30:32.169Z,28.30
2019-05-07T10:33:04.180Z,27.00
2019-05-07T10:35:34.734Z,27.80
2019-05-07T10:38:04.608Z,28.20
2019-05-07T10:40:34.099Z,29.10
2019-05-07T10:43:03.658Z,29.50
2019-05-07T10:46:04.203Z,29.20
2019-05-07T10:49:08.149Z,29.80
2019-05-07T10:51:39.504Z,28.50
2019-05-07T10:54:08.911Z,28.60
2019-05-07T10:56:38.304Z,27.50
2019-05-07T10:59:12.222Z,27.90
2019-05-07T11:02:06.255Z,27.20
2019-05-07T11:04:42.589Z,27.20
2019-05-07T11:07:08.938Z,27.50
2019-05-07T11:09:38.277Z,28.10
2019-05-07T11:12:07.717Z,29.20
2019-05-07T11:14:37.109Z,30.50
2019-05-07T11:17:34.473Z,30.40
2019-05-07T11:20:05.600Z,29.90
2019-05-07T11:22:34.917Z,29.20
2019-05-07T11:25:04.529Z,28.70
2019-05-07T11:27:33.902Z,29.00
2019-05-07T11:30:03.199Z,29.60
2019-05-07T11:32:32.646Z,29.30
2019-05-07T11:35:03.095Z,29.50
2019-05-07T11:37:32.632Z,29.20
2019-05-07T11:40:03.164Z,28.70
2019-05-07T11:42:51.979Z,28.30
2019-05-07T11:45:27.286Z,27.50
2019-05-07T11:47:56.727Z,27.70
2019-05-07T11:50:42.237Z,28.60
2019-05-07T11:53:12.423Z,28.30
2019-05-07T11:55:42.171Z,28.50
2019-05-07T11:58:12.838Z,28.60
2019-05-07T12:01:03.865Z,29.40
2019-05-07T12:03:32.985Z,30.40
2019-05-07T12:06:02.303Z,32.20
2019-05-07T12:08:42.975Z,33.30
2019-05-07T12:11:09.104Z,34.10
2019-05-07T12:13:39.267Z,33.90
2019-05-07T12:16:12.062Z,33.30
2019-05-07T12:18:40.213Z,32.70
2019-05-07T12:21:18.334Z,32.20
2019-05-07T12:23:42.155Z,31.50
2019-05-07T12:26:12.564Z,31.00
2019-05-07T12:28:42.126Z,30.50
2019-05-07T12:31:36.559Z,31.20
2019-05-07T12:34:12.211Z,31.70
2019-05-07T12:36:41.592Z,31.50
2019-05-07T12:39:12.769Z,32.50
2019-05-07T12:41:42.267Z,32.00
2019-05-07T12:44:13.097Z,32.40
2019-05-07T12:46:42.641Z,33.10
2019-05-07T12:49:12.175Z,33.30
2019-05-07T12:51:49.103Z,33.30
2019-05-07T12:54:33.730Z,33.30
2019-05-07T12:57:02.624Z,32.60
2019-05-07T12:59:32.315Z,33.10
2019-05-07T13:02:21.644Z,34.10
2019-05-07T13:04:39.115Z,34.30
2019-05-07T13:07:27.452Z,34.40
2019-05-07T13:09:56.942Z,34.40
2019-05-07T13:12:26.781Z,34.60
2019-05-07T13:14:56.359Z,35.20
2019-05-07T13:17:25.699Z,35.70
2019-05-07T13:19:55.065Z,36.10
2019-05-07T13:22:24.539Z,37.30
2019-05-07T13:24:54.013Z,37.60
2019-05-07T13:27:23.519Z,38.10
2019-05-07T13:29:53.262Z,38.80
2019-05-07T13:32:24.510Z,38.70
2019-05-07T13:34:54.434Z,38.90
2019-05-07T13:37:27.035Z,38.90
2019-05-07T13:40:02.662Z,38.70
2019-05-07T13:42:43.907Z,38.70
2019-05-07T13:45:32.750Z,39.40
2019-05-07T13:48:12.149Z,38.20
2019-05-07T13:50:41.983Z,36.10
2019-05-07T13:53:12.326Z,35.60
2019-05-07T13:55:42.368Z,34.40
2019-05-07T13:58:13.999Z,34.70
2019-05-07T14:00:53.952Z,35.70
2019-05-07T14:03:23.267Z,36.40
2019-05-07T14:05:52.676Z,37.30
2019-05-07T14:08:23.817Z,37.80
2019-05-07T14:10:53.193Z,38.70
2019-05-07T14:13:23.125Z,38.90
2019-05-07T14:16:08.916Z,39.20
2019-05-07T14:18:58.039Z,39.00
2019-05-07T14:21:28.576Z,38.20
2019-05-07T14:23:57.981Z,36.80
2019-05-07T14:26:27.390Z,35.20
2019-05-07T14:28:56.736Z,34.60
2019-05-07T14:31:26.102Z,34.10
2019-05-07T14:34:04.011Z,33.20
2019-05-07T14:36:39.195Z,32.30
2019-05-07T14:39:09.184Z,33.20
2019-05-07T14:41:38.600Z,32.50
2019-05-07T14:44:14.473Z,33.10
2019-05-07T14:46:50.590Z,33.50
2019-05-07T14:49:15.128Z,34.00
2019-05-07T14:51:44.561Z,33.70
2019-05-07T14:54:14.002Z,35.00
2019-05-07T14:56:43.335Z,36.60
2019-05-07T14:59:12.863Z,37.10
2019-05-07T15:01:43.002Z,37.00
2019-05-07T15:04:13.023Z,37.30
2019-05-07T15:06:42.429Z,37.70
2019-05-07T15:09:12.233Z,38.50
2019-05-07T15:11:42.510Z,38.80
2019-05-07T15:14:12.293Z,38.00
2019-05-07T15:16:42.727Z,37.90
2019-05-07T15:19:12.618Z,37.50
2019-05-07T15:21:42.740Z,37.70
2019-05-07T15:24:14.208Z,38.30
2019-05-07T15:26:43.610Z,38.70
2019-05-07T15:29:14.362Z,39.10
2019-05-07T15:32:03.426Z,39.50
2019-05-07T15:34:33.165Z,40.10
2019-05-07T15:37:02.535Z,40.80
2019-05-07T15:39:32.784Z,40.40
2019-05-07T15:42:05.943Z,40.20
2019-05-07T15:44:35.387Z,40.00
2019-05-07T15:47:11.611Z,40.10
2019-05-07T15:49:41.789Z,40.40
2019-05-07T15:52:17.238Z,40.90
2019-05-07T15:54:46.727Z,41.30
2019-05-07T15:57:21.959Z,41.30
2019-05-07T15:59:52.712Z,42.30
2019-05-07T16:02:32.334Z,42.70
2019-05-07T16:05:02.199Z,42.80
2019-05-07T16:07:52.560Z,43.00
2019-05-07T16:10:23.206Z,43.60
2019-05-07T16:12:53.308Z,43.90
2019-05-07T16:15:22.698Z,44.20
2019-05-07T16:18:02.771Z,44.40
2019-05-07T16:20:32.692Z,44.50
2019-05-07T16:23:13.964Z,44.50
2019-05-07T16:25:33.825Z,44.90
2019-05-07T16:28:04.946Z,45.30
2019-05-07T16:30:34.494Z,45.20
2019-05-07T16:33:03.832Z,45.50
2019-05-07T16:35:33.458Z,45.80
2019-05-07T16:38:02.744Z,45.90
2019-05-07T16:40:32.471Z,46.00
2019-05-07T16:43:02.794Z,46.30
2019-05-07T16:45:32.296Z,46.60
2019-05-07T16:48:03.265Z,46.70
2019-05-07T16:50:32.924Z,47.00
2019-05-07T16:53:02.860Z,47.70
2019-05-07T16:55:37.016Z,48.00
2019-05-07T16:58:12.823Z,47.90
2019-05-07T17:00:45.338Z,48.80
2019-05-07T17:03:19.077Z,48.50
2019-05-07T17:05:48.522Z,48.70
2019-05-07T17:08:28.755Z,48.90
2019-05-07T17:10:58.214Z,49.00
2019-05-07T17:13:27.571Z,49.50
2019-05-07T17:15:58.607Z,49.30
2019-05-07T17:18:29.047Z,49.40
2019-05-07T17:20:58.778Z,49.80
2019-05-07T17:23:42.834Z,49.90
2019-05-07T17:25:59.567Z,50.10
2019-05-07T17:28:28.950Z,50.70
2019-05-07T17:30:58.485Z,50.90
2019-05-07T17:33:27.854Z,51.10
2019-05-07T17:35:57.283Z,50.70
2019-05-07T17:38:26.709Z,50.50
2019-05-07T17:41:09.690Z,50.40
2019-05-07T17:43:27.101Z,50.50
2019-05-07T17:45:56.450Z,50.90
2019-05-07T17:48:26.699Z,51.40
2019-05-07T17:51:17.944Z,51.30
2019-05-07T17:53:57.686Z,51.50
2019-05-07T17:56:18.338Z,51.40
2019-05-07T17:58:47.702Z,51.60
2019-05-07T18:01:17.786Z,51.70
2019-05-07T18:03:47.155Z,51.80
2019-05-07T18:06:16.550Z,52.50
2019-05-07T18:08:45.913Z,52.20
2019-05-07T18:11:21.043Z,53.10
2019-05-07T18:13:46.758Z,52.50
2019-05-07T18:16:23.777Z,52.90
2019-05-07T18:18:53.183Z,53.00
2019-05-07T18:21:22.654Z,53.40
2019-05-07T18:23:52.008Z,53.30
2019-05-07T18:26:29.918Z,53.80
2019-05-07T18:28:52.542Z,53.80
2019-05-07T18:31:37.405Z,54.40
2019-05-07T18:34:06.910Z,54.70
2019-05-07T18:36:36.270Z,54.90
2019-05-07T18:39:06.715Z,54.90
2019-05-07T18:41:36.117Z,55.90
2019-05-07T18:44:12.330Z,55.30
2019-05-07T18:46:36.636Z,55.90
2019-05-07T18:49:05.948Z,56.40
2019-05-07T18:51:35.309Z,56.90
2019-05-07T18:54:04.700Z,56.40
2019-05-07T18:56:34.160Z,57.20
2019-05-07T18:59:03.601Z,57.00
2019-05-07T19:01:35.331Z,57.00
2019-05-07T19:04:05.061Z,57.80
2019-05-07T19:06:34.421Z,59.30
2019-05-07T19:09:05.184Z,59.50
2019-05-07T19:11:35.112Z,60.20
2019-05-07T19:14:05.234Z,59.70
2019-05-07T19:16:39.682Z,60.50
2019-05-07T19:19:09.256Z,61.10
2019-05-07T19:21:39.156Z,62.00
2019-05-07T19:24:09.054Z,62.10
2019-05-07T19:26:38.800Z,62.80
2019-05-07T19:29:12.454Z,60.70
2019-05-07T19:31:42.501Z,61.40
2019-05-07T19:34:12.443Z,63.70
2019-05-07T19:36:42.457Z,64.80
2019-05-07T19:39:14.517Z,65.90
2019-05-07T19:41:44.030Z,66.50
2019-05-07T19:44:13.456Z,64.20
2019-05-07T19:46:42.895Z,66.50
2019-05-07T19:49:12.345Z,67.80
2019-05-07T19:51:42.849Z,65.40
2019-05-07T19:54:12.337Z,67.40
2019-05-07T19:56:42.607Z,68.10
2019-05-07T19:59:12.501Z,66.20
2019-05-07T20:01:49.915Z,66.40
2019-05-07T20:04:19.264Z,69.50
2019-05-07T20:06:48.663Z,68.90
2019-05-07T20:09:20.503Z,69.20
2019-05-07T20:11:52.124Z,69.10
2019-05-07T20:14:22.313Z,70.80
2019-05-07T20:16:53.179Z,71.40
2019-05-07T20:19:23.104Z,72.50
2019-05-07T20:21:52.524Z,73.70
2019-05-07T20:24:22.118Z,73.50
2019-05-07T20:26:52.618Z,73.70
2019-05-07T20:29:22.880Z,74.30
2019-05-07T20:31:53.294Z,74.60
2019-05-07T20:34:23.138Z,73.90
2019-05-07T20:36:52.478Z,75.40
2019-05-07T20:39:23.337Z,75.30
2019-05-07T20:41:52.859Z,74.70
2019-05-07T20:44:22.149Z,75.00
2019-05-07T20:46:53.410Z,74.50
2019-05-07T20:49:22.718Z,75.10
2019-05-07T20:51:52.640Z,76.00
2019-05-07T20:54:47.373Z,75.60
2019-05-07T20:57:22.612Z,76.30
2019-05-07T20:59:52.016Z,77.10
2019-05-07T21:02:23.235Z,77.90
2019-05-07T21:04:52.622Z,78.20
2019-05-07T21:07:22.318Z,78.50
2019-05-07T21:09:53.031Z,79.60
2019-05-07T21:12:22.667Z,81.50
2019-05-07T21:14:52.540Z,80.70
2019-05-07T21:17:22.713Z,79.60
2019-05-07T21:19:52.246Z,81.00
2019-05-07T21:22:22.603Z,82.00
2019-05-07T21:24:53.279Z,79.40
2019-05-07T21:27:22.701Z,82.90
2019-05-07T21:29:52.800Z,83.10
2019-05-07T21:32:23.066Z,79.40
2019-05-07T21:34:52.862Z,85.30
2019-05-07T21:37:22.907Z,86.50
2019-05-07T21:39:53.183Z,87.10
2019-05-07T21:42:23.006Z,87.50
2019-05-07T21:44:52.804Z,90.60
2019-05-07T21:47:22.447Z,88.80
2019-05-07T21:49:54.853Z,88.90
2019-05-07T21:52:23.755Z,88.50
2019-05-07T21:54:59.437Z,88.10
2019-05-07T21:57:57.135Z,87.20
2019-05-07T22:00:52.025Z,86.90
2019-05-07T22:03:23.028Z,89.30
2019-05-07T22:05:52.511Z,88.70
2019-05-07T22:08:22.040Z,87.50
2019-05-07T22:10:51.553Z,90.40
2019-05-07T22:13:22.045Z,90.80
2019-05-07T22:15:52.183Z,90.80
2019-05-07T22:18:22.724Z,91.40
2019-05-07T22:20:52.325Z,91.90
2019-05-07T22:23:24.492Z,92.50
2019-05-07T22:25:52.801Z,93.00
2019-05-07T22:28:22.494Z,92.30
2019-05-07T22:30:59.572Z,93.10
2019-05-07T22:33:36.369Z,93.90
2019-05-07T22:36:05.769Z,93.90
2019-05-07T22:38:35.160Z,94.50
2019-05-07T22:41:04.432Z,95.10
2019-05-07T22:43:33.814Z,96.30
2019-05-07T22:46:03.204Z,96.60
2019-05-07T22:48:32.586Z,97.40
2019-05-07T22:51:02.731Z,97.40
2019-05-07T22:53:32.861Z,98.40
2019-05-07T22:56:03.169Z,98.80
2019-05-07T22:58:36.803Z,99.50
2019-05-07T23:01:08.356Z,99.90
2019-05-07T23:03:38.094Z,99.90
2019-05-07T23:06:07.675Z,99.90
2019-05-07T23:08:42.386Z,99.90
2019-05-07T23:11:12.236Z,99.90
2019-05-07T23:13:42.721Z,99.90
2019-05-07T23:16:12.753Z,99.90
2019-05-07T23:18:42.926Z,99.90
2019-05-07T23:21:12.444Z,99.90
2019-05-07T23:23:42.337Z,99.90
2019-05-07T23:26:14.496Z,99.90
2019-05-07T23:28:42.758Z,99.90
2019-05-07T23:31:12.393Z,99.90
2019-05-07T23:33:41.686Z,99.90
2019-05-07T23:36:12.907Z,99.90
2019-05-07T23:38:42.649Z,99.90
2019-05-07T23:41:42.091Z,99.90
2019-05-07T23:44:16.577Z,99.90
2019-05-07T23:46:45.935Z,99.90
2019-05-07T23:49:15.348Z,99.90
2019-05-07T23:51:44.956Z,99.90
2019-05-07T23:54:14.267Z,99.90
2019-05-07T23:56:43.582Z,99.90
2019-05-07T23:59:15.048Z,99.90
